Lebanon, VA (24266)

3:48 PM EST on December 22, 2014 (GMT -0500)
My Side Of The Mountain | Change Station
CLOSE
Current Station
Personal Weather Station
Location: Lebanon, VA
Elevation: 2480 ft
Nearby Weather Stations

Elev 2480 ft 36.85 °N, 82.12 °W | Updated 6 seconds ago

Clear
Clear
52.9 °F
Feels Like 52.9 °F
N
0.0
Wind Variable Wind from North
Gusts 7.0 mph

Today
High -- | Low -- °F
--% Chance of Precip.
Yesterday
High -- | Low -- °F
Precip. -- in
7:38 AM 5:15 PM
New Moon, 1% visible
Pressure 29.90 in
Visibility 10.0 miles
Clouds Scattered Clouds 9000 ft
Dew Point 43 °F
Humidity 70%
Rainfall 0.00 in
Snow Depth Not available.
UV 1 out of 12
Pollen .10 out of 12
Air Quality Not available.
Flu Activity Not available.
METAR KVJI 222035Z AUTO 11010KT 10SM SCT090 13/05 A2990 RMK AO2 T01310051

More Conditions Fewer Conditions

Pressure 29.90 in
Visibility 10.0 miles
Clouds Scattered Clouds 9000 ft
Dew Point 43 °F
Humidity 70%
Rainfall 0.00 in
Snow Depth Not available.
UV 1 out of 12
Pollen .10 out of 12
Air Quality Not available.
Flu Activity Not available.
METAR KVJI 222035Z AUTO 11010KT 10SM SCT090 13/05 A2990 RMK AO2 T01310051

More Conditions Fewer Conditions

10-Day Weather Forecast

Almanac

Astronomy

Dec. 22, 2014 Rise Set
Actual Time
Civil Twilight
Nautical Twilight
Astronomical Twilight
Moon
Length of Visible Light
Length of Day
Tomorrow will be .
, % of the Moon is Illuminated

Today's Extremes

State Highs State Lows

Community

WunderPhotos

Upload Photos

1,779,676 photos uploaded!

WunderBlogs® & News

Nearby

Air Quality

  Air Quality AQ Index Pollutant
Not available.

Snow Depth

Station Depth Elevation

Earthquake Activity

City Distance Mag. Time & Date
Minimum magnitude displayed is 2.5.

Coastal Water Temperatures

Place Temperature

Nearby Weather Stations